Boca Raton, FL (33486)

7:19 AM EST on December 26, 2014 (GMT -0500)
Boca Isles | Change Station
CLOSE
Current Station
Personal Weather Station
Location: Boca Raton, FL
Elevation: 36 ft
Nearby Weather Stations

Elev 36 ft 26.34 °N, 80.09 °W | Updated 3 seconds ago

Overcast
Overcast
67.1 °F
Feels Like 67.1 °F
N
0.0
Wind Variable Wind from South
Gusts 0.0 mph

Today
High -- | Low -- °F
--% Chance of Precip.
Yesterday
High -- | Low -- °F
Precip. -- in
7:06 AM 5:36 PM
Waxing Crescent, 25% visible
Pressure 30.16 in
Visibility 10.0 miles
Clouds Overcast 2300 ft
Dew Point 64 °F
Humidity 88%
Rainfall 0.00 in
Snow Depth Not available.
UV 0 out of 12
Pollen 4.50 out of 12
Air Quality Not available.
Flu Activity Not available.
METAR KPMP 261153Z 01003KT 10SM OVC023 20/16 A3015 RMK AO2 SLP212 T02000161 10211 20189 53005

More Conditions Fewer Conditions

Pressure 30.16 in
Visibility 10.0 miles
Clouds Overcast 2300 ft
Dew Point 64 °F
Humidity 88%
Rainfall 0.00 in
Snow Depth Not available.
UV 0 out of 12
Pollen 4.50 out of 12
Air Quality Not available.
Flu Activity Not available.
METAR KPMP 261153Z 01003KT 10SM OVC023 20/16 A3015 RMK AO2 SLP212 T02000161 10211 20189 53005

More Conditions Fewer Conditions

Nowcast | as of 6:21 am EST on December 26, 2014

Widely scattered showers have developed along the coast, moving west through mostly Miami-Dade and Broward counties this morning. Rainfall amounts will mainly be light.

×

10-Day Weather Forecast

Almanac

Astronomy

Dec. 26, 2014 Rise Set
Actual Time
Civil Twilight
Nautical Twilight
Astronomical Twilight
Moon
Length of Visible Light
Length of Day
Tomorrow will be .
, % of the Moon is Illuminated

Today's Extremes

State Highs State Lows

Community

WunderPhotos

Upload Photos

1,780,584 photos uploaded!

WunderBlogs® & News

Nearby

Air Quality

  Air Quality AQ Index Pollutant
Not available.

Snow Depth

Station Depth Elevation

Earthquake Activity

City Distance Mag. Time & Date
Minimum magnitude displayed is 2.5.

Coastal Water Temperatures

Place Temperature

Nearby Weather Stations